sensor_id;sensor_type;location;lat;lon;timestamp;temperature;humidity
84983;DHT22;75295;45.426;9.696;2024-03-06T00:02:26;12.00;85.00
84983;DHT22;75295;45.426;9.696;2024-03-06T00:04:53;11.90;84.90
84983;DHT22;75295;45.426;9.696;2024-03-06T00:07:20;11.90;84.90
84983;DHT22;75295;45.426;9.696;2024-03-06T00:09:47;11.90;84.90
84983;DHT22;75295;45.426;9.696;2024-03-06T00:12:13;11.80;85.00
84983;DHT22;75295;45.426;9.696;2024-03-06T00:14:40;11.90;85.10
84983;DHT22;75295;45.426;9.696;2024-03-06T00:17:07;11.90;85.20
84983;DHT22;75295;45.426;9.696;2024-03-06T00:19:34;11.90;85.30
84983;DHT22;75295;45.426;9.696;2024-03-06T00:22:01;11.90;85.40
84983;DHT22;75295;45.426;9.696;2024-03-06T00:24:28;11.90;85.30
84983;DHT22;75295;45.426;9.696;2024-03-06T00:26:55;11.90;85.50
84983;DHT22;75295;45.426;9.696;2024-03-06T00:29:22;11.90;85.60
84983;DHT22;75295;45.426;9.696;2024-03-06T00:31:48;11.90;85.50
84983;DHT22;75295;45.426;9.696;2024-03-06T00:34:15;11.90;85.50
84983;DHT22;75295;45.426;9.696;2024-03-06T00:36:42;11.80;85.40
84983;DHT22;75295;45.426;9.696;2024-03-06T00:41:37;11.60;85.20
84983;DHT22;75295;45.426;9.696;2024-03-06T00:44:04;11.60;86.00
84983;DHT22;75295;45.426;9.696;2024-03-06T00:46:32;11.60;86.00
84983;DHT22;75295;45.426;9.696;2024-03-06T00:48:58;11.50;85.70
84983;DHT22;75295;45.426;9.696;2024-03-06T00:51:25;11.60;85.70
84983;DHT22;75295;45.426;9.696;2024-03-06T00:53:51;11.60;85.60
84983;DHT22;75295;45.426;9.696;2024-03-06T00:56:18;11.60;85.40
84983;DHT22;75295;45.426;9.696;2024-03-06T00:58:45;11.60;85.10
84983;DHT22;75295;45.426;9.696;2024-03-06T01:01:15;11.60;84.90
84983;DHT22;75295;45.426;9.696;2024-03-06T01:03:42;11.50;84.80
84983;DHT22;75295;45.426;9.696;2024-03-06T01:06:09;11.50;84.60
84983;DHT22;75295;45.426;9.696;2024-03-06T01:08:35;11.40;84.80
84983;DHT22;75295;45.426;9.696;2024-03-06T01:11:02;11.40;84.70
84983;DHT22;75295;45.426;9.696;2024-03-06T01:13:31;11.40;85.00
84983;DHT22;75295;45.426;9.696;2024-03-06T01:15:57;11.40;85.00
84983;DHT22;75295;45.426;9.696;2024-03-06T01:18:24;11.40;85.00
84983;DHT22;75295;45.426;9.696;2024-03-06T01:20:50;11.40;84.80
84983;DHT22;75295;45.426;9.696;2024-03-06T01:23:17;11.40;84.60
84983;DHT22;75295;45.426;9.696;2024-03-06T01:25:44;11.40;84.60
84983;DHT22;75295;45.426;9.696;2024-03-06T01:28:10;11.50;84.50
84983;DHT22;75295;45.426;9.696;2024-03-06T01:30:37;11.50;84.40
84983;DHT22;75295;45.426;9.696;2024-03-06T01:33:03;11.50;84.20
84983;DHT22;75295;45.426;9.696;2024-03-06T01:35:31;11.50;84.10
84983;DHT22;75295;45.426;9.696;2024-03-06T01:37:58;11.40;83.90
84983;DHT22;75295;45.426;9.696;2024-03-06T01:40:24;11.30;83.60
84983;DHT22;75295;45.426;9.696;2024-03-06T01:42:51;11.30;83.70
84983;DHT22;75295;45.426;9.696;2024-03-06T01:45:17;11.20;83.50
84983;DHT22;75295;45.426;9.696;2024-03-06T01:47:44;11.10;83.70
84983;DHT22;75295;45.426;9.696;2024-03-06T01:50:11;11.00;84.00
84983;DHT22;75295;45.426;9.696;2024-03-06T01:52:39;11.00;84.40
84983;DHT22;75295;45.426;9.696;2024-03-06T01:55:07;11.10;84.40
84983;DHT22;75295;45.426;9.696;2024-03-06T01:57:35;11.10;84.00
84983;DHT22;75295;45.426;9.696;2024-03-06T02:00:06;11.10;83.80
84983;DHT22;75295;45.426;9.696;2024-03-06T02:02:34;11.10;83.40
84983;DHT22;75295;45.426;9.696;2024-03-06T02:05:01;11.00;83.20
84983;DHT22;75295;45.426;9.696;2024-03-06T02:07:31;11.10;83.10
84983;DHT22;75295;45.426;9.696;2024-03-06T02:09:58;11.00;83.10
84983;DHT22;75295;45.426;9.696;2024-03-06T02:12:25;11.00;83.20
84983;DHT22;75295;45.426;9.696;2024-03-06T02:14:52;10.90;83.20
84983;DHT22;75295;45.426;9.696;2024-03-06T02:17:18;10.90;83.40
84983;DHT22;75295;45.426;9.696;2024-03-06T02:19:45;10.90;83.40
84983;DHT22;75295;45.426;9.696;2024-03-06T02:22:12;10.80;83.60
84983;DHT22;75295;45.426;9.696;2024-03-06T02:24:44;10.80;83.50
84983;DHT22;75295;45.426;9.696;2024-03-06T02:27:14;10.80;83.70
84983;DHT22;75295;45.426;9.696;2024-03-06T02:29:40;10.80;83.80
84983;DHT22;75295;45.426;9.696;2024-03-06T02:32:07;10.70;83.70
84983;DHT22;75295;45.426;9.696;2024-03-06T02:34:34;10.70;83.70
84983;DHT22;75295;45.426;9.696;2024-03-06T02:37:01;10.80;83.70
84983;DHT22;75295;45.426;9.696;2024-03-06T02:39:28;10.80;83.80
84983;DHT22;75295;45.426;9.696;2024-03-06T02:41:54;10.80;83.70
84983;DHT22;75295;45.426;9.696;2024-03-06T02:44:22;10.80;83.20
84983;DHT22;75295;45.426;9.696;2024-03-06T02:46:48;10.80;83.20
84983;DHT22;75295;45.426;9.696;2024-03-06T02:49:16;10.80;83.10
84983;DHT22;75295;45.426;9.696;2024-03-06T02:51:44;10.80;83.00
84983;DHT22;75295;45.426;9.696;2024-03-06T02:54:10;10.70;83.00
84983;DHT22;75295;45.426;9.696;2024-03-06T02:56:37;10.70;83.40
84983;DHT22;75295;45.426;9.696;2024-03-06T02:59:04;10.70;83.70
84983;DHT22;75295;45.426;9.696;2024-03-06T03:01:31;10.60;83.50
84983;DHT22;75295;45.426;9.696;2024-03-06T03:03:57;10.60;83.90
84983;DHT22;75295;45.426;9.696;2024-03-06T03:06:24;10.50;83.90
84983;DHT22;75295;45.426;9.696;2024-03-06T03:08:51;10.50;84.10
84983;DHT22;75295;45.426;9.696;2024-03-06T03:11:17;10.60;84.00
84983;DHT22;75295;45.426;9.696;2024-03-06T03:13:44;10.70;83.90
84983;DHT22;75295;45.426;9.696;2024-03-06T03:16:20;10.70;83.70
84983;DHT22;75295;45.426;9.696;2024-03-06T03:18:47;10.80;83.80
84983;DHT22;75295;45.426;9.696;2024-03-06T03:21:14;10.90;83.80
84983;DHT22;75295;45.426;9.696;2024-03-06T03:23:41;10.90;83.40
84983;DHT22;75295;45.426;9.696;2024-03-06T03:26:10;11.00;82.80
84983;DHT22;75295;45.426;9.696;2024-03-06T03:28:40;11.10;82.70
84983;DHT22;75295;45.426;9.696;2024-03-06T03:31:09;11.10;82.50
84983;DHT22;75295;45.426;9.696;2024-03-06T03:33:40;11.10;82.50
84983;DHT22;75295;45.426;9.696;2024-03-06T03:36:08;11.00;82.40
84983;DHT22;75295;45.426;9.696;2024-03-06T03:38:36;10.90;82.00
84983;DHT22;75295;45.426;9.696;2024-03-06T03:41:13;10.80;81.90
84983;DHT22;75295;45.426;9.696;2024-03-06T03:43:40;10.70;82.00
84983;DHT22;75295;45.426;9.696;2024-03-06T03:46:06;10.70;82.20
84983;DHT22;75295;45.426;9.696;2024-03-06T03:48:33;10.60;82.30
84983;DHT22;75295;45.426;9.696;2024-03-06T03:51:03;10.50;82.40
84983;DHT22;75295;45.426;9.696;2024-03-06T03:53:34;10.50;82.60
84983;DHT22;75295;45.426;9.696;2024-03-06T03:56:01;10.40;82.60
84983;DHT22;75295;45.426;9.696;2024-03-06T03:58:29;10.40;82.90
84983;DHT22;75295;45.426;9.696;2024-03-06T04:00:56;10.40;83.20
84983;DHT22;75295;45.426;9.696;2024-03-06T04:03:23;10.30;83.10
84983;DHT22;75295;45.426;9.696;2024-03-06T04:05:50;10.20;83.30
84983;DHT22;75295;45.426;9.696;2024-03-06T04:08:16;10.10;83.30
84983;DHT22;75295;45.426;9.696;2024-03-06T04:10:43;10.10;83.20
84983;DHT22;75295;45.426;9.696;2024-03-06T04:13:14;10.00;83.30
84983;DHT22;75295;45.426;9.696;2024-03-06T04:15:41;9.90;83.60
84983;DHT22;75295;45.426;9.696;2024-03-06T04:18:08;9.80;84.30
84983;DHT22;75295;45.426;9.696;2024-03-06T04:20:35;9.70;85.10
84983;DHT22;75295;45.426;9.696;2024-03-06T04:23:01;9.70;85.30
84983;DHT22;75295;45.426;9.696;2024-03-06T04:25:28;9.80;85.30
84983;DHT22;75295;45.426;9.696;2024-03-06T04:27:55;9.80;85.20
84983;DHT22;75295;45.426;9.696;2024-03-06T04:30:22;9.90;85.70
84983;DHT22;75295;45.426;9.696;2024-03-06T04:32:48;10.00;84.40
84983;DHT22;75295;45.426;9.696;2024-03-06T04:35:15;10.00;84.30
84983;DHT22;75295;45.426;9.696;2024-03-06T04:37:42;10.00;84.40
84983;DHT22;75295;45.426;9.696;2024-03-06T04:40:10;10.10;84.40
84983;DHT22;75295;45.426;9.696;2024-03-06T04:42:37;10.20;84.20
84983;DHT22;75295;45.426;9.696;2024-03-06T04:45:10;10.30;83.90
84983;DHT22;75295;45.426;9.696;2024-03-06T04:47:38;10.30;83.60
84983;DHT22;75295;45.426;9.696;2024-03-06T04:50:11;10.40;83.40
84983;DHT22;75295;45.426;9.696;2024-03-06T04:52:40;10.40;83.20
84983;DHT22;75295;45.426;9.696;2024-03-06T04:55:08;10.50;83.10
84983;DHT22;75295;45.426;9.696;2024-03-06T04:57:39;10.50;82.90
84983;DHT22;75295;45.426;9.696;2024-03-06T05:00:10;10.50;82.80
84983;DHT22;75295;45.426;9.696;2024-03-06T05:02:38;10.50;82.60
84983;DHT22;75295;45.426;9.696;2024-03-06T05:05:05;10.50;82.40
84983;DHT22;75295;45.426;9.696;2024-03-06T05:07:32;10.50;82.50
84983;DHT22;75295;45.426;9.696;2024-03-06T05:09:59;10.50;82.50
84983;DHT22;75295;45.426;9.696;2024-03-06T05:12:27;10.40;82.60
84983;DHT22;75295;45.426;9.696;2024-03-06T05:14:55;10.40;82.90
84983;DHT22;75295;45.426;9.696;2024-03-06T05:17:22;10.30;83.00
84983;DHT22;75295;45.426;9.696;2024-03-06T05:19:49;10.30;83.00
84983;DHT22;75295;45.426;9.696;2024-03-06T05:22:16;10.10;83.00
84983;DHT22;75295;45.426;9.696;2024-03-06T05:24:43;10.00;83.60
84983;DHT22;75295;45.426;9.696;2024-03-06T05:27:14;9.90;84.30
84983;DHT22;75295;45.426;9.696;2024-03-06T05:29:43;9.80;84.70
84983;DHT22;75295;45.426;9.696;2024-03-06T05:32:10;9.50;85.40
84983;DHT22;75295;45.426;9.696;2024-03-06T05:34:37;9.40;86.10
84983;DHT22;75295;45.426;9.696;2024-03-06T05:37:04;9.40;86.40
84983;DHT22;75295;45.426;9.696;2024-03-06T05:39:31;9.30;86.50
84983;DHT22;75295;45.426;9.696;2024-03-06T05:42:02;9.30;87.00
84983;DHT22;75295;45.426;9.696;2024-03-06T05:44:30;9.30;87.10
84983;DHT22;75295;45.426;9.696;2024-03-06T05:46:58;9.40;87.10
84983;DHT22;75295;45.426;9.696;2024-03-06T05:49:28;9.60;86.70
84983;DHT22;75295;45.426;9.696;2024-03-06T05:51:56;9.80;86.10
84983;DHT22;75295;45.426;9.696;2024-03-06T05:54:23;9.90;85.40
84983;DHT22;75295;45.426;9.696;2024-03-06T05:56:50;10.00;84.90
84983;DHT22;75295;45.426;9.696;2024-03-06T05:59:18;10.10;84.70
84983;DHT22;75295;45.426;9.696;2024-03-06T06:01:45;10.10;84.50
84983;DHT22;75295;45.426;9.696;2024-03-06T06:04:13;10.20;84.00
84983;DHT22;75295;45.426;9.696;2024-03-06T06:06:40;10.20;83.90
84983;DHT22;75295;45.426;9.696;2024-03-06T06:09:08;10.30;84.00
84983;DHT22;75295;45.426;9.696;2024-03-06T06:11:42;10.30;83.80
84983;DHT22;75295;45.426;9.696;2024-03-06T06:14:10;10.40;83.50
84983;DHT22;75295;45.426;9.696;2024-03-06T06:16:41;10.40;83.30
84983;DHT22;75295;45.426;9.696;2024-03-06T06:19:08;10.30;83.50
84983;DHT22;75295;45.426;9.696;2024-03-06T06:21:35;10.30;83.80
84983;DHT22;75295;45.426;9.696;2024-03-06T06:24:03;10.30;84.10
84983;DHT22;75295;45.426;9.696;2024-03-06T06:26:30;10.30;84.00
84983;DHT22;75295;45.426;9.696;2024-03-06T06:28:57;10.40;83.70
84983;DHT22;75295;45.426;9.696;2024-03-06T06:31:24;10.50;83.50
84983;DHT22;75295;45.426;9.696;2024-03-06T06:33:53;10.50;83.20
84983;DHT22;75295;45.426;9.696;2024-03-06T06:36:20;10.50;83.20
84983;DHT22;75295;45.426;9.696;2024-03-06T06:38:47;10.40;83.50
84983;DHT22;75295;45.426;9.696;2024-03-06T06:41:15;10.40;83.70
84983;DHT22;75295;45.426;9.696;2024-03-06T06:43:42;10.50;83.90
84983;DHT22;75295;45.426;9.696;2024-03-06T06:46:08;10.50;83.60
84983;DHT22;75295;45.426;9.696;2024-03-06T06:48:35;10.60;83.70
84983;DHT22;75295;45.426;9.696;2024-03-06T06:51:02;10.60;83.40
84983;DHT22;75295;45.426;9.696;2024-03-06T06:53:32;10.70;83.20
84983;DHT22;75295;45.426;9.696;2024-03-06T06:55:59;10.70;82.80
84983;DHT22;75295;45.426;9.696;2024-03-06T06:58:25;10.70;83.00
84983;DHT22;75295;45.426;9.696;2024-03-06T07:00:55;10.80;83.20
84983;DHT22;75295;45.426;9.696;2024-03-06T07:03:21;10.80;83.20
84983;DHT22;75295;45.426;9.696;2024-03-06T07:05:49;11.00;82.70
84983;DHT22;75295;45.426;9.696;2024-03-06T07:08:16;10.90;82.50
84983;DHT22;75295;45.426;9.696;2024-03-06T07:10:43;10.90;82.40
84983;DHT22;75295;45.426;9.696;2024-03-06T07:13:10;10.90;82.40
84983;DHT22;75295;45.426;9.696;2024-03-06T07:15:37;10.90;82.40
84983;DHT22;75295;45.426;9.696;2024-03-06T07:18:04;10.90;82.50
84983;DHT22;75295;45.426;9.696;2024-03-06T07:20:32;10.90;82.60
84983;DHT22;75295;45.426;9.696;2024-03-06T07:22:59;10.90;82.60
84983;DHT22;75295;45.426;9.696;2024-03-06T07:25:26;10.90;82.30
84983;DHT22;75295;45.426;9.696;2024-03-06T07:27:52;10.80;82.40
84983;DHT22;75295;45.426;9.696;2024-03-06T07:30:19;10.80;82.50
84983;DHT22;75295;45.426;9.696;2024-03-06T07:32:46;10.80;82.60
84983;DHT22;75295;45.426;9.696;2024-03-06T07:35:13;10.80;82.60
84983;DHT22;75295;45.426;9.696;2024-03-06T07:37:40;10.80;82.80
84983;DHT22;75295;45.426;9.696;2024-03-06T07:40:08;10.90;82.90
84983;DHT22;75295;45.426;9.696;2024-03-06T07:42:35;10.90;82.70
84983;DHT22;75295;45.426;9.696;2024-03-06T07:45:05;11.00;82.70
84983;DHT22;75295;45.426;9.696;2024-03-06T07:47:33;11.00;82.50
84983;DHT22;75295;45.426;9.696;2024-03-06T07:50:00;11.00;82.40
84983;DHT22;75295;45.426;9.696;2024-03-06T07:52:26;11.00;82.50
84983;DHT22;75295;45.426;9.696;2024-03-06T07:54:53;11.00;83.20
84983;DHT22;75295;45.426;9.696;2024-03-06T07:57:20;11.00;83.20
84983;DHT22;75295;45.426;9.696;2024-03-06T07:59:47;11.10;82.50
84983;DHT22;75295;45.426;9.696;2024-03-06T08:02:15;11.10;82.40
84983;DHT22;75295;45.426;9.696;2024-03-06T08:04:42;11.20;82.10
84983;DHT22;75295;45.426;9.696;2024-03-06T08:07:09;11.20;82.00
84983;DHT22;75295;45.426;9.696;2024-03-06T08:09:35;11.30;81.80
84983;DHT22;75295;45.426;9.696;2024-03-06T08:12:02;11.40;81.50
84983;DHT22;75295;45.426;9.696;2024-03-06T08:14:29;11.60;81.20
84983;DHT22;75295;45.426;9.696;2024-03-06T08:16:55;11.60;80.80
84983;DHT22;75295;45.426;9.696;2024-03-06T08:19:22;11.80;80.10
84983;DHT22;75295;45.426;9.696;2024-03-06T08:21:51;11.80;80.50
84983;DHT22;75295;45.426;9.696;2024-03-06T08:24:17;12.00;80.50
84983;DHT22;75295;45.426;9.696;2024-03-06T08:26:44;12.10;80.00
84983;DHT22;75295;45.426;9.696;2024-03-06T08:29:11;12.20;79.80
84983;DHT22;75295;45.426;9.696;2024-03-06T08:31:37;12.30;79.50
84983;DHT22;75295;45.426;9.696;2024-03-06T08:34:05;12.30;79.00
84983;DHT22;75295;45.426;9.696;2024-03-06T08:36:32;12.30;79.00
84983;DHT22;75295;45.426;9.696;2024-03-06T08:38:59;12.30;79.00
84983;DHT22;75295;45.426;9.696;2024-03-06T08:41:26;12.30;79.00
84983;DHT22;75295;45.426;9.696;2024-03-06T08:43:52;12.40;78.90
84983;DHT22;75295;45.426;9.696;2024-03-06T08:46:19;12.50;78.80
84983;DHT22;75295;45.426;9.696;2024-03-06T08:48:45;12.60;78.20
84983;DHT22;75295;45.426;9.696;2024-03-06T08:51:12;12.70;78.00
84983;DHT22;75295;45.426;9.696;2024-03-06T08:53:40;12.90;77.40
84983;DHT22;75295;45.426;9.696;2024-03-06T08:56:07;12.90;77.80
84983;DHT22;75295;45.426;9.696;2024-03-06T08:58:33;13.10;77.50
84983;DHT22;75295;45.426;9.696;2024-03-06T09:01:00;13.20;76.60
84983;DHT22;75295;45.426;9.696;2024-03-06T09:03:27;13.20;76.10
84983;DHT22;75295;45.426;9.696;2024-03-06T09:05:53;13.20;76.20
84983;DHT22;75295;45.426;9.696;2024-03-06T09:08:20;13.20;76.10
84983;DHT22;75295;45.426;9.696;2024-03-06T09:10:46;13.10;75.80
84983;DHT22;75295;45.426;9.696;2024-03-06T09:13:13;13.10;76.30
84983;DHT22;75295;45.426;9.696;2024-03-06T09:15:40;13.10;75.80
84983;DHT22;75295;45.426;9.696;2024-03-06T09:18:06;13.10;76.10
84983;DHT22;75295;45.426;9.696;2024-03-06T09:20:33;13.10;75.80
84983;DHT22;75295;45.426;9.696;2024-03-06T09:22:59;13.20;75.90
84983;DHT22;75295;45.426;9.696;2024-03-06T09:25:26;13.30;75.80
84983;DHT22;75295;45.426;9.696;2024-03-06T09:27:53;13.50;75.60
84983;DHT22;75295;45.426;9.696;2024-03-06T09:30:20;13.60;75.50
84983;DHT22;75295;45.426;9.696;2024-03-06T09:32:47;13.80;75.10
84983;DHT22;75295;45.426;9.696;2024-03-06T09:35:14;13.90;74.90
84983;DHT22;75295;45.426;9.696;2024-03-06T09:37:40;14.00;74.30
84983;DHT22;75295;45.426;9.696;2024-03-06T09:40:10;14.10;73.80
84983;DHT22;75295;45.426;9.696;2024-03-06T09:42:43;14.20;73.50
84983;DHT22;75295;45.426;9.696;2024-03-06T09:45:10;14.20;73.50
84983;DHT22;75295;45.426;9.696;2024-03-06T09:47:38;14.30;73.20
84983;DHT22;75295;45.426;9.696;2024-03-06T09:50:09;14.40;73.10
84983;DHT22;75295;45.426;9.696;2024-03-06T09:52:36;14.50;73.30
84983;DHT22;75295;45.426;9.696;2024-03-06T09:55:06;14.50;72.80
84983;DHT22;75295;45.426;9.696;2024-03-06T09:57:36;14.60;72.70
84983;DHT22;75295;45.426;9.696;2024-03-06T10:00:03;14.60;72.50
84983;DHT22;75295;45.426;9.696;2024-03-06T10:02:41;14.60;72.10
84983;DHT22;75295;45.426;9.696;2024-03-06T10:05:21;14.60;72.00
84983;DHT22;75295;45.426;9.696;2024-03-06T10:07:50;14.70;72.10
84983;DHT22;75295;45.426;9.696;2024-03-06T10:10:19;14.70;72.00
84983;DHT22;75295;45.426;9.696;2024-03-06T10:12:49;14.60;71.90
84983;DHT22;75295;45.426;9.696;2024-03-06T10:15:15;14.60;72.00
84983;DHT22;75295;45.426;9.696;2024-03-06T10:17:42;14.40;71.60
84983;DHT22;75295;45.426;9.696;2024-03-06T10:20:22;14.20;72.40
84983;DHT22;75295;45.426;9.696;2024-03-06T10:22:51;14.10;73.40
84983;DHT22;75295;45.426;9.696;2024-03-06T10:25:19;14.20;73.70
84983;DHT22;75295;45.426;9.696;2024-03-06T10:28:09;14.40;73.70
84983;DHT22;75295;45.426;9.696;2024-03-06T10:30:41;14.60;72.40
84983;DHT22;75295;45.426;9.696;2024-03-06T10:33:13;14.40;72.50
84983;DHT22;75295;45.426;9.696;2024-03-06T10:35:41;14.10;72.50
84983;DHT22;75295;45.426;9.696;2024-03-06T10:38:10;14.00;73.10
84983;DHT22;75295;45.426;9.696;2024-03-06T10:40:41;14.10;73.50
84983;DHT22;75295;45.426;9.696;2024-03-06T10:43:10;14.10;72.90
84983;DHT22;75295;45.426;9.696;2024-03-06T10:48:15;14.10;72.90
84983;DHT22;75295;45.426;9.696;2024-03-06T10:50:45;14.20;72.80
84983;DHT22;75295;45.426;9.696;2024-03-06T10:53:15;14.20;72.80
84983;DHT22;75295;45.426;9.696;2024-03-06T10:55:45;14.20;73.10
84983;DHT22;75295;45.426;9.696;2024-03-06T10:58:12;14.30;72.60
84983;DHT22;75295;45.426;9.696;2024-03-06T11:00:48;14.30;71.60
84983;DHT22;75295;45.426;9.696;2024-03-06T11:03:17;14.40;72.10
84983;DHT22;75295;45.426;9.696;2024-03-06T11:05:45;14.50;72.30
84983;DHT22;75295;45.426;9.696;2024-03-06T11:08:14;14.50;70.90
84983;DHT22;75295;45.426;9.696;2024-03-06T11:10:42;14.40;71.80
84983;DHT22;75295;45.426;9.696;2024-03-06T11:13:23;14.40;71.90
84983;DHT22;75295;45.426;9.696;2024-03-06T11:15:53;14.40;71.70
84983;DHT22;75295;45.426;9.696;2024-03-06T11:23:26;14.60;71.10
84983;DHT22;75295;45.426;9.696;2024-03-06T11:28:29;14.90;71.00
84983;DHT22;75295;45.426;9.696;2024-03-06T11:33:42;15.20;70.80
84983;DHT22;75295;45.426;9.696;2024-03-06T11:39:05;15.40;68.70
84983;DHT22;75295;45.426;9.696;2024-03-06T11:41:49;15.50;68.80
84983;DHT22;75295;45.426;9.696;2024-03-06T11:44:21;15.60;68.80
84983;DHT22;75295;45.426;9.696;2024-03-06T11:49:20;15.40;68.50
84983;DHT22;75295;45.426;9.696;2024-03-06T11:51:48;15.30;68.70
84983;DHT22;75295;45.426;9.696;2024-03-06T11:54:15;15.30;68.90
84983;DHT22;75295;45.426;9.696;2024-03-06T11:56:45;15.30;69.00
84983;DHT22;75295;45.426;9.696;2024-03-06T11:59:27;15.30;69.10
84983;DHT22;75295;45.426;9.696;2024-03-06T12:02:00;15.30;69.10
84983;DHT22;75295;45.426;9.696;2024-03-06T12:04:35;15.40;69.20
84983;DHT22;75295;45.426;9.696;2024-03-06T12:07:05;15.30;68.90
84983;DHT22;75295;45.426;9.696;2024-03-06T12:09:37;15.30;69.30
84983;DHT22;75295;45.426;9.696;2024-03-06T12:12:06;15.20;69.00
84983;DHT22;75295;45.426;9.696;2024-03-06T12:14:35;15.20;69.20
84983;DHT22;75295;45.426;9.696;2024-03-06T12:17:03;15.20;69.90
84983;DHT22;75295;45.426;9.696;2024-03-06T12:19:35;15.20;70.60
84983;DHT22;75295;45.426;9.696;2024-03-06T12:22:03;15.20;70.10
84983;DHT22;75295;45.426;9.696;2024-03-06T12:24:31;15.10;70.50
84983;DHT22;75295;45.426;9.696;2024-03-06T12:27:06;15.10;69.30
84983;DHT22;75295;45.426;9.696;2024-03-06T12:29:35;14.90;68.60
84983;DHT22;75295;45.426;9.696;2024-03-06T12:32:02;14.90;69.20
84983;DHT22;75295;45.426;9.696;2024-03-06T12:34:29;15.00;69.20
84983;DHT22;75295;45.426;9.696;2024-03-06T12:36:56;15.10;69.00
84983;DHT22;75295;45.426;9.696;2024-03-06T12:39:23;15.10;68.30
84983;DHT22;75295;45.426;9.696;2024-03-06T12:41:50;15.30;68.60
84983;DHT22;75295;45.426;9.696;2024-03-06T12:44:19;15.40;68.00
84983;DHT22;75295;45.426;9.696;2024-03-06T12:46:46;15.60;68.00
84983;DHT22;75295;45.426;9.696;2024-03-06T12:49:12;15.70;66.60
84983;DHT22;75295;45.426;9.696;2024-03-06T12:54:07;16.10;65.50
84983;DHT22;75295;45.426;9.696;2024-03-06T12:56:35;16.20;65.70
84983;DHT22;75295;45.426;9.696;2024-03-06T12:59:02;16.30;64.70
84983;DHT22;75295;45.426;9.696;2024-03-06T13:01:29;16.50;65.00
84983;DHT22;75295;45.426;9.696;2024-03-06T13:03:56;16.60;64.50
84983;DHT22;75295;45.426;9.696;2024-03-06T13:06:24;16.70;64.10
84983;DHT22;75295;45.426;9.696;2024-03-06T13:08:50;17.00;64.80
84983;DHT22;75295;45.426;9.696;2024-03-06T13:11:17;17.50;63.20
84983;DHT22;75295;45.426;9.696;2024-03-06T13:13:45;17.90;61.70
84983;DHT22;75295;45.426;9.696;2024-03-06T13:16:11;18.20;60.70
84983;DHT22;75295;45.426;9.696;2024-03-06T13:18:38;18.40;59.20
84983;DHT22;75295;45.426;9.696;2024-03-06T13:21:04;18.50;59.60
84983;DHT22;75295;45.426;9.696;2024-03-06T13:23:31;18.80;58.70
84983;DHT22;75295;45.426;9.696;2024-03-06T13:25:58;18.90;57.10
84983;DHT22;75295;45.426;9.696;2024-03-06T13:28:25;18.80;56.00
84983;DHT22;75295;45.426;9.696;2024-03-06T13:30:51;18.60;55.90
84983;DHT22;75295;45.426;9.696;2024-03-06T13:33:18;18.30;57.30
84983;DHT22;75295;45.426;9.696;2024-03-06T13:35:44;18.10;58.60
84983;DHT22;75295;45.426;9.696;2024-03-06T13:38:11;17.80;58.30
84983;DHT22;75295;45.426;9.696;2024-03-06T13:40:38;17.70;59.00
84983;DHT22;75295;45.426;9.696;2024-03-06T13:43:06;17.50;59.10
84983;DHT22;75295;45.426;9.696;2024-03-06T13:45:33;17.30;59.40
84983;DHT22;75295;45.426;9.696;2024-03-06T13:48:00;17.20;59.80
84983;DHT22;75295;45.426;9.696;2024-03-06T13:50:27;17.30;60.10
84983;DHT22;75295;45.426;9.696;2024-03-06T13:52:55;17.40;60.40
84983;DHT22;75295;45.426;9.696;2024-03-06T13:55:21;17.50;59.90
84983;DHT22;75295;45.426;9.696;2024-03-06T13:57:48;17.60;59.70
84983;DHT22;75295;45.426;9.696;2024-03-06T14:00:16;17.50;58.20
84983;DHT22;75295;45.426;9.696;2024-03-06T14:02:44;17.30;58.80
84983;DHT22;75295;45.426;9.696;2024-03-06T14:05:14;17.20;60.10
84983;DHT22;75295;45.426;9.696;2024-03-06T14:07:41;16.90;59.60
84983;DHT22;75295;45.426;9.696;2024-03-06T14:10:08;16.80;59.80
84983;DHT22;75295;45.426;9.696;2024-03-06T14:12:35;16.80;60.60
84983;DHT22;75295;45.426;9.696;2024-03-06T14:15:02;17.00;60.70
84983;DHT22;75295;45.426;9.696;2024-03-06T14:17:30;17.10;60.30
84983;DHT22;75295;45.426;9.696;2024-03-06T14:19:57;17.20;60.40
84983;DHT22;75295;45.426;9.696;2024-03-06T14:22:23;17.20;60.50
84983;DHT22;75295;45.426;9.696;2024-03-06T14:24:50;17.10;60.00
84983;DHT22;75295;45.426;9.696;2024-03-06T14:27:16;17.10;60.20
84983;DHT22;75295;45.426;9.696;2024-03-06T14:29:43;17.20;60.00
84983;DHT22;75295;45.426;9.696;2024-03-06T14:32:11;17.30;59.70
84983;DHT22;75295;45.426;9.696;2024-03-06T14:34:37;17.30;59.80
84983;DHT22;75295;45.426;9.696;2024-03-06T14:37:05;17.30;60.00
84983;DHT22;75295;45.426;9.696;2024-03-06T14:39:31;17.20;58.40
84983;DHT22;75295;45.426;9.696;2024-03-06T14:41:58;17.20;58.40
84983;DHT22;75295;45.426;9.696;2024-03-06T14:44:25;17.10;58.70
84983;DHT22;75295;45.426;9.696;2024-03-06T14:46:52;17.10;58.70
84983;DHT22;75295;45.426;9.696;2024-03-06T14:49:19;17.10;58.90
84983;DHT22;75295;45.426;9.696;2024-03-06T14:51:46;17.00;57.90
84983;DHT22;75295;45.426;9.696;2024-03-06T14:54:12;17.10;58.20
84983;DHT22;75295;45.426;9.696;2024-03-06T14:56:40;17.10;58.40
84983;DHT22;75295;45.426;9.696;2024-03-06T14:59:08;17.30;57.70
84983;DHT22;75295;45.426;9.696;2024-03-06T15:01:35;17.40;57.50
84983;DHT22;75295;45.426;9.696;2024-03-06T15:04:03;17.50;57.40
84983;DHT22;75295;45.426;9.696;2024-03-06T15:06:30;17.60;56.80
84983;DHT22;75295;45.426;9.696;2024-03-06T15:08:57;17.50;55.80
84983;DHT22;75295;45.426;9.696;2024-03-06T15:11:24;17.60;56.30
84983;DHT22;75295;45.426;9.696;2024-03-06T15:13:51;17.70;56.10
84983;DHT22;75295;45.426;9.696;2024-03-06T15:16:17;17.90;56.40
84983;DHT22;75295;45.426;9.696;2024-03-06T15:18:44;17.90;54.70
84983;DHT22;75295;45.426;9.696;2024-03-06T15:21:11;17.80;53.90
84983;DHT22;75295;45.426;9.696;2024-03-06T15:23:38;17.60;54.50
84983;DHT22;75295;45.426;9.696;2024-03-06T15:26:05;17.40;54.50
84983;DHT22;75295;45.426;9.696;2024-03-06T15:28:31;17.40;54.90
84983;DHT22;75295;45.426;9.696;2024-03-06T15:30:58;17.40;54.50
84983;DHT22;75295;45.426;9.696;2024-03-06T15:33:25;17.40;54.20
84983;DHT22;75295;45.426;9.696;2024-03-06T15:35:51;17.30;53.60
84983;DHT22;75295;45.426;9.696;2024-03-06T15:38:18;17.30;53.90
84983;DHT22;75295;45.426;9.696;2024-03-06T15:40:46;17.30;53.90
84983;DHT22;75295;45.426;9.696;2024-03-06T15:43:17;17.20;54.40
84983;DHT22;75295;45.426;9.696;2024-03-06T15:45:44;17.20;54.30
84983;DHT22;75295;45.426;9.696;2024-03-06T15:48:11;17.20;54.40
84983;DHT22;75295;45.426;9.696;2024-03-06T15:50:41;17.20;54.60
84983;DHT22;75295;45.426;9.696;2024-03-06T15:53:08;17.20;54.80
84983;DHT22;75295;45.426;9.696;2024-03-06T15:55:36;17.20;54.90
84983;DHT22;75295;45.426;9.696;2024-03-06T15:58:03;17.30;55.00
84983;DHT22;75295;45.426;9.696;2024-03-06T16:00:31;17.30;54.90